Time;durP1;ratioP1;P1;durP2;ratioP2;P2;SDS_P1;SDS_P2;PMS_P1;PMS_P2;Temp;Humidity;BMP_temperature;BMP_pressure;BME280_temperature;BME280_humidity;BME280_pressure;Samples;Min_cycle;Max_cycle;Signal;HPM_P1;HPM_P2
2021/12/11 00:01:48;;;;;;;9.30;5.47;;;-0.30;99.90;;;;;;5055678;28;20337;-77
2021/12/11 00:04:19;;;;;;;9.73;5.17;;;-0.40;99.90;;;;;;5054582;28;20270;-77
2021/12/11 00:06:48;;;;;;;7.70;5.67;;;-0.40;99.90;;;;;;5037870;28;20598;-77
2021/12/11 00:09:22;;;;;;;7.77;4.70;;;-0.40;99.90;;;;;;5055608;28;20185;-77
2021/12/11 00:12:15;;;;;;;6.93;5.00;;;-0.40;99.90;;;;;;5055814;28;20277;-77
2021/12/11 00:14:44;;;;;;;7.20;4.47;;;-0.50;99.90;;;;;;5037693;28;20220;-77
2021/12/11 00:17:11;;;;;;;7.97;5.07;;;-0.50;99.90;;;;;;5055485;28;20214;-77
2021/12/11 00:19:39;;;;;;;7.90;4.60;;;-0.50;99.90;;;;;;5055345;28;20245;-78
2021/12/11 00:22:10;;;;;;;8.43;5.43;;;-0.50;99.90;;;;;;5037496;28;20343;-77
2021/12/11 00:24:37;;;;;;;7.30;5.20;;;-0.50;99.90;;;;;;5055585;28;20178;-77
2021/12/11 00:27:08;;;;;;;9.93;5.10;;;-0.50;99.90;;;;;;5055525;28;20644;-77
2021/12/11 00:29:35;;;;;;;8.47;4.67;;;-0.50;99.90;;;;;;5055615;28;20636;-77
2021/12/11 00:32:08;;;;;;;9.57;5.00;;;-0.50;99.90;;;;;;5055117;28;20205;-77
2021/12/11 00:34:37;;;;;;;7.93;5.47;;;-0.50;99.90;;;;;;5055285;28;20701;-77
2021/12/11 00:37:09;;;;;;;9.07;5.47;;;-0.60;99.90;;;;;;5037200;28;20194;-77
2021/12/11 00:39:56;;;;;;;9.57;5.20;;;-0.60;99.90;;;;;;5055343;28;20273;-77
2021/12/11 00:42:30;;;;;;;7.13;5.33;;;-0.50;99.90;;;;;;5055006;28;20192;-77
2021/12/11 00:44:56;;;;;;;12.03;4.83;;;-0.60;99.90;;;;;;5036001;28;20201;-77
2021/12/11 00:47:25;;;;;;;7.03;4.43;;;-0.60;99.90;;;;;;5037077;28;20663;-77
2021/12/11 00:49:59;;;;;;;7.50;4.60;;;-0.60;99.90;;;;;;5054862;28;20180;-77
2021/12/11 00:52:40;;;;;;;11.37;4.83;;;-0.60;99.90;;;;;;5055011;28;20225;-77
2021/12/11 00:55:17;;;;;;;7.40;4.70;;;-0.60;99.90;;;;;;5037025;28;20592;-77
2021/12/11 00:57:49;;;;;;;6.17;5.17;;;-0.60;99.90;;;;;;5037086;28;20182;-77
2021/12/11 01:00:20;;;;;;;8.90;5.00;;;-0.60;99.90;;;;;;5054950;28;20189;-77
2021/12/11 01:02:49;;;;;;;8.50;5.27;;;-0.60;99.90;;;;;;5054918;28;20190;-77
2021/12/11 01:05:15;;;;;;;7.63;5.30;;;-0.70;99.90;;;;;;5036662;28;20185;-77
2021/12/11 01:07:40;;;;;;;9.97;6.13;;;-0.60;99.90;;;;;;5054642;28;20178;-77
2021/12/11 01:10:23;;;;;;;11.33;5.77;;;-0.70;99.90;;;;;;5036688;28;20187;-77
2021/12/11 01:12:56;;;;;;;10.00;5.40;;;-0.70;99.90;;;;;;5054579;28;20197;-77
2021/12/11 01:15:34;;;;;;;11.40;5.27;;;-0.70;99.90;;;;;;5054819;28;20565;-77
2021/12/11 01:21:00;;;;;;;9.57;5.80;;;-0.80;99.90;;;;;;5054511;28;20659;-78
2021/12/11 01:23:46;;;;;;;9.47;5.33;;;-0.80;99.90;;;;;;5054248;28;20195;-77
2021/12/11 01:26:20;;;;;;;12.43;6.20;;;-0.80;99.90;;;;;;5054492;28;20210;-77
2021/12/11 01:28:46;;;;;;;8.23;5.60;;;-0.80;99.90;;;;;;5054173;28;20162;-77
2021/12/11 01:31:15;;;;;;;11.10;6.00;;;-0.80;99.90;;;;;;5036204;28;20260;-77
2021/12/11 01:33:42;;;;;;;8.53;5.50;;;-0.80;99.90;;;;;;5053963;28;20660;-77
2021/12/11 01:36:08;;;;;;;9.87;5.87;;;-0.80;99.90;;;;;;5054047;28;20172;-77
2021/12/11 01:38:34;;;;;;;9.03;6.10;;;-0.90;99.90;;;;;;5053959;28;20178;-77
2021/12/11 01:41:04;;;;;;;7.93;5.87;;;-0.90;99.90;;;;;;5054119;28;20339;-77
2021/12/11 01:43:33;;;;;;;11.07;5.93;;;-0.90;99.90;;;;;;5035897;28;20208;-77
2021/12/11 01:46:00;;;;;;;9.43;6.10;;;-0.90;99.90;;;;;;5035855;28;20221;-77
2021/12/11 01:48:30;;;;;;;8.20;5.60;;;-1.00;99.90;;;;;;5053755;28;20182;-77
2021/12/11 01:51:01;;;;;;;9.60;5.93;;;-1.00;99.90;;;;;;5053642;28;20196;-77
2021/12/11 01:53:35;;;;;;;10.23;6.27;;;-1.00;99.90;;;;;;5053918;28;20209;-77
2021/12/11 01:56:09;;;;;;;8.57;6.10;;;-1.00;99.90;;;;;;5035498;28;20181;-77
2021/12/11 01:58:56;;;;;;;10.40;5.90;;;-1.00;99.90;;;;;;5052291;28;20185;-77
2021/12/11 02:01:36;;;;;;;8.37;5.43;;;-1.00;99.90;;;;;;5053549;28;20586;-77
2021/12/11 02:04:05;;;;;;;9.57;5.63;;;-1.00;99.90;;;;;;5053828;28;20288;-77
2021/12/11 02:06:35;;;;;;;7.07;5.20;;;-1.00;99.90;;;;;;5053414;28;20240;-77
2021/12/11 02:09:23;;;;;;;13.50;6.23;;;-1.00;99.90;;;;;;5053700;28;20659;-77
2021/12/11 02:12:07;;;;;;;9.10;5.87;;;-1.00;99.90;;;;;;5035550;28;20210;-77
2021/12/11 02:14:39;;;;;;;9.20;5.80;;;-1.10;99.90;;;;;;5053390;28;20161;-78
2021/12/11 02:17:06;;;;;;;8.23;5.80;;;-1.10;99.90;;;;;;5053440;28;20170;-77
2021/12/11 02:19:37;;;;;;;8.97;5.60;;;-1.10;99.90;;;;;;5035370;28;20213;-77
2021/12/11 02:22:02;;;;;;;10.43;4.87;;;-1.10;99.90;;;;;;5053228;28;20200;-77
2021/12/11 02:24:35;;;;;;;6.10;4.90;;;-1.10;99.90;;;;;;5053220;28;20261;-77
2021/12/11 02:27:09;;;;;;;8.67;5.00;;;-1.10;99.90;;;;;;5053223;28;20196;-77
2021/12/11 02:29:44;;;;;;;8.07;5.33;;;-1.10;99.90;;;;;;5053158;28;20155;-77
2021/12/11 02:32:40;;;;;;;8.40;5.27;;;-1.10;99.90;;;;;;5069332;23;20218;-78
2021/12/11 02:35:08;;;;;;;11.37;5.40;;;-1.20;99.90;;;;;;5031466;28;20197;-79
2021/12/11 02:37:40;;;;;;;8.63;5.17;;;-1.20;99.90;;;;;;5018291;28;20199;-78
2021/12/11 02:40:27;;;;;;;7.00;4.90;;;-1.10;99.90;;;;;;5036193;28;20202;-78
2021/12/11 02:43:03;;;;;;;12.30;5.20;;;-1.20;99.90;;;;;;5017811;28;20620;-79
2021/12/11 02:46:01;;;;;;;8.73;4.80;;;-1.20;99.90;;;;;;5035096;28;20170;-79
2021/12/11 02:48:53;;;;;;;8.30;5.30;;;-1.30;99.90;;;;;;5017049;28;20188;-79
2021/12/11 02:51:35;;;;;;;11.77;5.43;;;-1.30;99.90;;;;;;5017651;28;20232;-78
2021/12/11 02:54:07;;;;;;;10.47;5.53;;;-1.30;99.90;;;;;;5036339;28;20198;-78
2021/12/11 02:56:38;;;;;;;9.47;5.30;;;-1.40;99.90;;;;;;5038004;28;20213;-79
2021/12/11 02:59:15;;;;;;;10.40;5.70;;;-1.40;99.90;;;;;;5037478;28;20625;-78
2021/12/11 03:01:49;;;;;;;11.67;5.00;;;-1.40;99.90;;;;;;5035007;28;20242;-79
2021/12/11 03:04:24;;;;;;;9.23;5.23;;;-1.40;99.90;;;;;;5034675;28;20285;-79
2021/12/11 03:06:53;;;;;;;12.27;6.20;;;-1.30;99.90;;;;;;5034845;28;20257;-79
2021/12/11 03:09:23;;;;;;;9.30;6.50;;;-1.40;99.90;;;;;;5019938;28;20194;-79
2021/12/11 03:11:51;;;;;;;11.37;5.90;;;-1.40;99.90;;;;;;5037213;28;20185;-79
2021/12/11 03:14:18;;;;;;;10.17;6.00;;;-1.40;99.90;;;;;;5020679;28;20579;-77
2021/12/11 03:16:45;;;;;;;10.10;6.33;;;-1.40;99.90;;;;;;5037510;28;20185;-79
2021/12/11 03:19:14;;;;;;;10.23;6.13;;;-1.40;99.90;;;;;;5038897;28;20202;-79
2021/12/11 03:21:41;;;;;;;10.53;5.80;;;-1.40;99.90;;;;;;5039037;28;20179;-79
2021/12/11 03:24:07;;;;;;;13.17;6.33;;;-1.40;99.90;;;;;;5039766;28;20270;-79
2021/12/11 03:26:34;;;;;;;13.93;6.43;;;-1.40;99.90;;;;;;5039513;28;20178;-79
2021/12/11 03:28:59;;;;;;;8.00;5.83;;;-1.40;99.90;;;;;;5022582;28;20197;-79
2021/12/11 03:31:25;;;;;;;20.10;6.57;;;-1.30;99.90;;;;;;5040392;28;20248;-79
2021/12/11 03:33:55;;;;;;;17.47;8.53;;;-1.40;99.90;;;;;;5040410;28;20227;-79
2021/12/11 03:36:24;;;;;;;13.10;7.67;;;-1.30;99.90;;;;;;5040837;28;20199;-79
2021/12/11 03:38:54;;;;;;;16.90;9.27;;;-1.20;99.90;;;;;;5041111;28;20202;-80
2021/12/11 03:41:22;;;;;;;15.53;8.23;;;-1.20;99.90;;;;;;5039739;28;20567;-79
2021/12/11 03:43:49;;;;;;;26.47;9.13;;;-1.20;99.90;;;;;;5022621;28;20209;-79
2021/12/11 03:46:16;;;;;;;17.23;8.60;;;-1.20;99.90;;;;;;5023508;28;20187;-79
2021/12/11 03:48:51;;;;;;;11.73;6.80;;;-1.10;99.90;;;;;;5040366;28;20228;-79
2021/12/11 03:51:21;;;;;;;8.07;6.27;;;-1.10;99.90;;;;;;5041574;28;20165;-79
2021/12/11 03:53:47;;;;;;;15.73;8.10;;;-1.10;99.90;;;;;;5040536;28;20212;-79
2021/12/11 03:56:15;;;;;;;14.37;7.30;;;-1.00;99.90;;;;;;5040358;28;20520;-79
2021/12/11 03:58:49;;;;;;;14.80;7.80;;;-1.10;99.90;;;;;;5023484;28;20616;-79
2021/12/11 04:01:29;;;;;;;20.57;8.93;;;-1.00;99.90;;;;;;5041102;28;20253;-79
2021/12/11 04:04:00;;;;;;;23.37;11.07;;;-0.90;99.90;;;;;;5023207;28;20202;-79
2021/12/11 04:06:27;;;;;;;33.23;13.23;;;-0.90;99.90;;;;;;5021770;28;20331;-79
2021/12/11 04:08:54;;;;;;;29.63;13.60;;;-0.80;99.90;;;;;;5038845;28;20659;-79
2021/12/11 04:11:24;;;;;;;32.83;13.90;;;-0.80;99.90;;;;;;5038843;28;20171;-79
2021/12/11 04:13:53;;;;;;;35.37;14.73;;;-0.70;99.90;;;;;;5020742;28;20294;-79
2021/12/11 04:16:19;;;;;;;38.00;16.03;;;-0.60;99.90;;;;;;5038638;28;20213;-79
2021/12/11 04:18:45;;;;;;;39.00;15.20;;;-0.60;99.90;;;;;;5037689;28;20191;-79
2021/12/11 04:21:13;;;;;;;43.27;15.90;;;-0.50;99.90;;;;;;5038051;28;20221;-79
2021/12/11 04:23:39;;;;;;;34.03;16.53;;;-0.50;99.90;;;;;;5037910;28;20199;-79
2021/12/11 04:26:05;;;;;;;47.30;16.73;;;-0.40;99.90;;;;;;5038398;28;20188;-79
2021/12/11 04:28:35;;;;;;;37.10;16.87;;;-0.40;99.90;;;;;;5038187;28;20186;-79
2021/12/11 04:31:06;;;;;;;37.40;17.27;;;-0.30;99.90;;;;;;5038427;28;20181;-79
2021/12/11 04:33:38;;;;;;;33.40;16.20;;;-0.30;99.90;;;;;;5038167;28;20256;-79
2021/12/11 04:36:10;;;;;;;33.23;17.40;;;-0.20;99.90;;;;;;5037962;28;20164;-78
2021/12/11 04:38:36;;;;;;;44.53;18.07;;;-0.20;99.90;;;;;;5039162;28;20512;-79
2021/12/11 04:41:03;;;;;;;42.83;19.80;;;-0.20;99.90;;;;;;5037320;28;20217;-79
2021/12/11 04:43:29;;;;;;;51.03;20.23;;;-0.10;99.90;;;;;;5038228;28;20207;-79
2021/12/11 04:46:03;;;;;;;42.00;20.17;;;-0.10;99.90;;;;;;5038703;28;20171;-78
2021/12/11 04:48:42;;;;;;;45.73;20.33;;;0.00;99.90;;;;;;5038248;28;20168;-79
2021/12/11 04:51:17;;;;;;;39.67;20.10;;;0.00;99.90;;;;;;5037461;28;20249;-78
2021/12/11 04:54:41;;;;;;;43.03;18.67;;;0.10;99.90;;;;;;5037988;28;20195;-79
2021/12/11 05:02:29;;;;;;;50.67;18.47;;;0.20;99.90;;;;;;5038196;28;20262;-77
2021/12/11 05:07:43;;;;;;;35.90;18.07;;;0.30;99.90;;;;;;5037521;28;20262;-78
2021/12/11 05:10:31;;;;;;;44.43;18.40;;;0.30;99.90;;;;;;5037803;28;20551;-79
2021/12/11 05:12:58;;;;;;;32.10;17.90;;;0.40;99.90;;;;;;5019614;28;20274;-79
2021/12/11 05:15:27;;;;;;;46.30;19.90;;;0.40;99.90;;;;;;5019997;28;20191;-79
2021/12/11 05:17:53;;;;;;;47.33;19.53;;;0.50;99.90;;;;;;5037107;28;20187;-79
2021/12/11 05:20:22;;;;;;;42.83;18.03;;;0.50;99.90;;;;;;5037388;28;20211;-79
2021/12/11 05:22:48;;;;;;;47.67;19.53;;;0.50;99.90;;;;;;5019596;28;20223;-79
2021/12/11 05:25:15;;;;;;;84.63;22.20;;;0.60;99.90;;;;;;5037619;28;20172;-79
2021/12/11 05:27:43;;;;;;;47.37;21.10;;;0.60;99.90;;;;;;5036927;28;20641;-79
2021/12/11 05:30:18;;;;;;;63.83;22.00;;;0.70;99.90;;;;;;5037228;28;20231;-79
2021/12/11 05:32:44;;;;;;;78.90;22.20;;;0.70;99.90;;;;;;5018938;28;20231;-79
2021/12/11 05:35:11;;;;;;;44.40;21.03;;;0.80;99.90;;;;;;5038539;28;20530;-79
2021/12/11 05:37:37;;;;;;;51.23;23.10;;;0.70;99.90;;;;;;5037245;28;20561;-79
2021/12/11 05:40:06;;;;;;;38.93;22.13;;;0.80;99.90;;;;;;5019249;28;20581;-78
2021/12/11 05:42:31;;;;;;;45.23;22.83;;;0.80;99.90;;;;;;5037187;28;20272;-78
2021/12/11 05:44:57;;;;;;;52.13;23.43;;;0.80;99.90;;;;;;5035483;28;20772;-79
2021/12/11 05:47:22;;;;;;;49.27;23.33;;;0.80;99.90;;;;;;5018752;28;20187;-79
2021/12/11 05:49:49;;;;;;;58.23;23.80;;;0.80;99.90;;;;;;5036499;28;20191;-79
2021/12/11 05:52:15;;;;;;;52.37;24.43;;;0.90;99.90;;;;;;5036962;28;20190;-79
2021/12/11 05:54:44;;;;;;;52.03;25.10;;;0.90;99.90;;;;;;5036563;28;20207;-79
2021/12/11 05:57:12;;;;;;;51.20;25.00;;;0.90;99.90;;;;;;5036379;28;20262;-79
2021/12/11 05:59:40;;;;;;;73.57;26.10;;;0.90;99.90;;;;;;5018641;28;20247;-79
2021/12/11 06:02:17;;;;;;;65.93;25.03;;;1.00;99.90;;;;;;5037026;28;20172;-79
2021/12/11 06:04:45;;;;;;;48.93;25.43;;;1.00;99.90;;;;;;5036474;28;20190;-79
2021/12/11 06:07:13;;;;;;;57.57;25.27;;;1.00;99.90;;;;;;5036010;28;20234;-79
2021/12/11 06:09:42;;;;;;;53.40;25.27;;;1.00;99.90;;;;;;5036509;28;20198;-79
2021/12/11 06:12:11;;;;;;;46.70;24.27;;;1.00;99.90;;;;;;5035926;28;20659;-79
2021/12/11 06:14:38;;;;;;;65.33;26.83;;;1.00;99.90;;;;;;5036463;28;20176;-79
2021/12/11 06:17:05;;;;;;;57.27;27.97;;;1.00;99.90;;;;;;5034672;28;20183;-78
2021/12/11 06:19:31;;;;;;;59.93;27.23;;;1.00;99.90;;;;;;5036048;28;20204;-79
2021/12/11 06:21:58;;;;;;;50.03;27.83;;;1.10;99.90;;;;;;5036097;28;20180;-79
2021/12/11 06:24:26;;;;;;;54.97;26.80;;;1.10;99.90;;;;;;5018615;28;20180;-79
2021/12/11 06:26:52;;;;;;;52.90;26.00;;;1.10;99.90;;;;;;5036555;28;20191;-79
2021/12/11 06:29:18;;;;;;;55.47;27.10;;;1.10;99.90;;;;;;5018803;28;20599;-79
2021/12/11 06:31:44;;;;;;;58.77;27.67;;;1.10;99.90;;;;;;5036995;28;20246;-79
2021/12/11 06:34:11;;;;;;;58.17;27.60;;;1.10;99.90;;;;;;5043273;28;20705;-79
2021/12/11 06:36:37;;;;;;;56.10;28.67;;;1.10;99.90;;;;;;5035528;28;20184;-79
2021/12/11 06:39:11;;;;;;;58.13;28.03;;;1.10;99.90;;;;;;5036485;28;20189;-79
2021/12/11 06:41:39;;;;;;;61.07;28.73;;;1.10;99.90;;;;;;5036142;28;20630;-79
2021/12/11 06:44:06;;;;;;;59.13;28.40;;;1.20;99.90;;;;;;5035899;28;20207;-79
2021/12/11 06:46:33;;;;;;;66.37;29.47;;;1.20;99.90;;;;;;5036755;28;20681;-79
2021/12/11 06:48:59;;;;;;;71.03;30.33;;;1.20;99.90;;;;;;5036292;28;20179;-79
2021/12/11 06:51:26;;;;;;;70.63;29.53;;;1.20;99.90;;;;;;5018670;28;20187;-79
2021/12/11 06:53:56;;;;;;;72.53;31.90;;;1.20;99.90;;;;;;5036305;28;20224;-80
2021/12/11 06:56:23;;;;;;;68.37;29.43;;;1.30;99.90;;;;;;5037240;28;20179;-79
2021/12/11 06:58:51;;;;;;;70.23;31.63;;;1.30;99.90;;;;;;5019330;28;20192;-80
2021/12/11 07:01:18;;;;;;;74.77;33.40;;;1.40;99.90;;;;;;5037311;28;20199;-79
2021/12/11 07:03:44;;;;;;;68.23;30.63;;;1.40;99.90;;;;;;5019817;28;20262;-79
2021/12/11 07:06:11;;;;;;;66.77;30.00;;;1.40;99.90;;;;;;5037661;28;20729;-80
2021/12/11 07:08:38;;;;;;;68.63;30.50;;;1.40;99.90;;;;;;5037946;28;20175;-79
2021/12/11 07:11:07;;;;;;;71.87;31.00;;;1.40;99.90;;;;;;5037225;28;20184;-79
2021/12/11 07:13:33;;;;;;;69.23;30.40;;;1.40;99.90;;;;;;5038147;28;20678;-80
2021/12/11 07:15:59;;;;;;;68.83;29.50;;;1.40;99.90;;;;;;5038273;28;20190;-80
2021/12/11 07:18:27;;;;;;;72.50;31.10;;;1.40;99.90;;;;;;5038101;28;20180;-79
2021/12/11 07:20:54;;;;;;;77.10;32.60;;;1.40;99.90;;;;;;5020124;28;20697;-80
2021/12/11 07:23:20;;;;;;;69.60;29.80;;;1.40;99.90;;;;;;5037891;28;20720;-79
2021/12/11 07:25:52;;;;;;;66.33;29.73;;;1.50;99.90;;;;;;5038077;28;20183;-79
2021/12/11 07:28:20;;;;;;;72.47;30.07;;;1.40;99.90;;;;;;5020847;28;20173;-79
2021/12/11 07:30:48;;;;;;;63.83;29.93;;;1.40;99.90;;;;;;5038123;28;20176;-79
2021/12/11 07:33:14;;;;;;;63.20;28.77;;;1.40;99.90;;;;;;5037481;28;20215;-79
2021/12/11 07:35:41;;;;;;;64.37;28.33;;;1.40;99.90;;;;;;5020373;28;20191;-79
2021/12/11 07:38:07;;;;;;;60.00;28.67;;;1.40;99.90;;;;;;5038190;28;20183;-80
2021/12/11 07:40:40;;;;;;;62.10;27.27;;;1.40;99.90;;;;;;5020473;28;20626;-80
2021/12/11 07:43:07;;;;;;;61.60;27.57;;;1.40;99.90;;;;;;5040089;28;20213;-79
2021/12/11 07:45:34;;;;;;;61.90;27.87;;;1.40;99.90;;;;;;5042794;28;20184;-79
2021/12/11 07:47:59;;;;;;;61.80;27.27;;;1.40;99.90;;;;;;5023895;28;20184;-80
2021/12/11 07:50:26;;;;;;;55.53;26.60;;;1.40;99.90;;;;;;5020890;28;20252;-80
2021/12/11 07:52:52;;;;;;;59.97;26.83;;;1.40;99.90;;;;;;5020672;28;20204;-80
2021/12/11 07:55:18;;;;;;;60.60;27.73;;;1.50;99.90;;;;;;5025645;28;20253;-80
2021/12/11 07:57:44;;;;;;;64.90;28.53;;;1.50;99.90;;;;;;5047544;28;20229;-80
2021/12/11 08:00:14;;;;;;;65.87;28.80;;;1.50;99.90;;;;;;5047247;28;20209;-80
2021/12/11 08:02:40;;;;;;;65.60;29.33;;;1.50;99.90;;;;;;5043323;28;20197;-79
2021/12/11 08:05:07;;;;;;;74.10;29.13;;;1.60;99.90;;;;;;5022170;28;20267;-79
2021/12/11 08:07:32;;;;;;;75.30;31.33;;;1.60;99.90;;;;;;5040715;28;20168;-79
2021/12/11 08:09:58;;;;;;;60.47;28.63;;;1.60;99.90;;;;;;5040018;28;20196;-79
2021/12/11 08:12:24;;;;;;;71.10;27.03;;;1.60;99.90;;;;;;5022432;28;20279;-79
2021/12/11 08:14:50;;;;;;;66.30;28.27;;;1.60;99.90;;;;;;5023826;28;20279;-79
2021/12/11 08:17:17;;;;;;;64.30;29.10;;;1.60;99.90;;;;;;5041074;28;20680;-79
2021/12/11 08:19:44;;;;;;;67.43;28.77;;;1.70;99.90;;;;;;5045049;28;20741;-79
2021/12/11 08:22:10;;;;;;;61.20;29.57;;;1.70;99.90;;;;;;5029902;28;20184;-79
2021/12/11 08:24:38;;;;;;;77.10;30.77;;;1.70;99.90;;;;;;5041463;28;20180;-79
2021/12/11 08:27:11;;;;;;;75.40;31.97;;;1.80;99.90;;;;;;5041393;28;20172;-79
2021/12/11 08:29:37;;;;;;;92.30;33.77;;;1.80;99.90;;;;;;5020886;28;20181;-79
2021/12/11 08:32:04;;;;;;;80.27;32.87;;;1.80;99.90;;;;;;5038396;28;20187;-79
2021/12/11 08:34:30;;;;;;;77.80;33.10;;;1.80;99.90;;;;;;5034247;23;20644;-91
2021/12/11 08:36:57;;;;;;;79.00;33.47;;;1.90;99.90;;;;;;4999004;28;20199;-92
2021/12/11 08:39:23;;;;;;;83.93;32.27;;;1.90;99.90;;;;;;4998558;28;20223;-94
2021/12/11 08:41:51;;;;;;;78.47;33.53;;;2.40;99.90;;;;;;5004194;28;20189;-93
2021/12/11 08:44:18;;;;;;;80.13;32.73;;;1.90;99.90;;;;;;5021118;28;20273;-93
2021/12/11 08:46:51;;;;;;;71.73;32.23;;;1.90;99.90;;;;;;5003131;28;20216;-93
2021/12/11 08:49:21;;;;;;;77.73;31.60;;;1.80;99.90;;;;;;5003177;28;20335;-93
2021/12/11 08:51:53;;;;;;;81.63;31.80;;;1.90;99.90;;;;;;5003577;28;20224;-93
2021/12/11 08:54:21;;;;;;;64.97;29.57;;;2.00;99.90;;;;;;5007163;28;20219;-91
2021/12/11 08:56:49;;;;;;;75.60;33.13;;;2.00;99.90;;;;;;5002231;28;20197;-91
2021/12/11 08:59:18;;;;;;;73.07;31.43;;;2.00;99.90;;;;;;5025996;28;20275;-91
2021/12/11 09:02:11;;;;;;;75.97;33.43;;;2.00;99.90;;;;;;4999699;28;20206;-91
2021/12/11 09:04:55;;;;;;;73.60;31.90;;;2.10;99.90;;;;;;5000774;28;20773;-92
2021/12/11 09:07:35;;;;;;;71.67;30.43;;;2.10;99.90;;;;;;4998520;28;20196;-92
2021/12/11 09:10:17;;;;;;;71.70;32.17;;;2.10;99.90;;;;;;4986210;28;20200;-91
2021/12/11 09:12:49;;;;;;;63.97;29.27;;;2.10;99.90;;;;;;5025522;28;20207;-94
2021/12/11 09:15:23;;;;;;;75.73;31.40;;;2.10;99.90;;;;;;5022887;28;20217;-92
2021/12/11 09:17:55;;;;;;;77.60;32.13;;;2.10;99.90;;;;;;5000526;28;20187;-92
2021/12/11 09:20:50;;;;;;;76.33;32.07;;;2.20;99.90;;;;;;4999317;28;20239;-92
2021/12/11 09:23:27;;;;;;;74.03;33.83;;;2.20;99.90;;;;;;4988393;28;20193;-94
2021/12/11 09:26:09;;;;;;;80.23;36.30;;;2.20;99.90;;;;;;5007898;28;20207;-94
2021/12/11 09:28:49;;;;;;;77.50;36.23;;;2.40;99.90;;;;;;5042249;23;20633;-76
2021/12/11 09:31:32;;;;;;;91.17;35.97;;;2.20;99.90;;;;;;5055693;28;20263;-78
2021/12/11 09:34:27;;;;;;;87.10;34.17;;;2.30;99.90;;;;;;5056172;28;20282;-78
2021/12/11 09:36:57;;;;;;;91.17;33.57;;;2.30;99.90;;;;;;5034210;28;20237;-78
2021/12/11 09:39:40;;;;;;;95.20;35.40;;;2.40;99.90;;;;;;5037098;28;20298;-76
2021/12/11 09:42:05;;;;;;;92.77;33.87;;;2.40;99.90;;;;;;5058119;28;20162;-78
2021/12/11 09:44:49;;;;;;;95.10;35.20;;;2.40;99.90;;;;;;5037036;28;20195;-75
2021/12/11 09:47:22;;;;;;;93.43;34.27;;;2.40;99.90;;;;;;5038180;28;20183;-78
2021/12/11 09:49:56;;;;;;;96.17;34.30;;;2.50;99.90;;;;;;5038572;28;20254;-78
2021/12/11 09:52:23;;;;;;;103.37;36.40;;;2.50;99.90;;;;;;5057002;28;20172;-78
2021/12/11 09:55:17;;;;;;;99.57;35.80;;;2.50;99.90;;;;;;5058114;28;20230;-77
2021/12/11 09:57:47;;;;;;;102.93;35.90;;;2.60;99.90;;;;;;5052812;28;20184;-77
2021/12/11 10:00:22;;;;;;;100.77;37.13;;;2.60;99.90;;;;;;5057127;28;20218;-78
2021/12/11 10:02:48;;;;;;;106.07;37.67;;;2.60;99.90;;;;;;5039428;28;20175;-78
2021/12/11 10:05:36;;;;;;;107.03;39.10;;;2.70;99.90;;;;;;5038641;28;20206;-77
2021/12/11 10:08:31;;;;;;;106.43;39.73;;;2.70;99.90;;;;;;5040155;28;20176;-79
2021/12/11 10:11:16;;;;;;;113.80;39.30;;;2.70;99.90;;;;;;5058518;28;20164;-78
2021/12/11 10:13:50;;;;;;;106.30;36.60;;;2.70;99.90;;;;;;5039069;28;20207;-77
2021/12/11 10:16:19;;;;;;;105.60;37.30;;;2.70;99.90;;;;;;5056207;28;20266;-78
2021/12/11 10:18:46;;;;;;;103.07;35.13;;;2.80;99.90;;;;;;5038754;28;20566;-78
2021/12/11 10:21:17;;;;;;;105.37;37.30;;;2.80;99.90;;;;;;5055841;28;20684;-78
2021/12/11 10:23:47;;;;;;;108.07;36.17;;;2.80;99.90;;;;;;5056640;28;20201;-77
2021/12/11 10:26:15;;;;;;;103.20;36.97;;;2.80;99.90;;;;;;5056469;28;20176;-77
2021/12/11 10:28:47;;;;;;;99.80;36.03;;;2.80;99.90;;;;;;5056340;28;20271;-78
2021/12/11 10:31:23;;;;;;;98.90;36.67;;;2.80;99.90;;;;;;5058068;28;20180;-79
2021/12/11 10:33:50;;;;;;;104.30;34.77;;;2.80;99.90;;;;;;5057793;28;20203;-77
2021/12/11 10:36:19;;;;;;;107.33;36.23;;;2.80;99.90;;;;;;5053803;28;20176;-78
2021/12/11 10:38:47;;;;;;;104.13;35.47;;;2.80;99.90;;;;;;5038831;28;20266;-79
2021/12/11 10:41:15;;;;;;;89.70;33.80;;;2.80;99.90;;;;;;5053911;28;20202;-77
2021/12/11 10:43:54;;;;;;;106.80;34.97;;;2.90;99.90;;;;;;5053107;28;20191;-76
2021/12/11 10:46:23;;;;;;;101.87;36.80;;;2.90;99.90;;;;;;5053467;28;20160;-77
2021/12/11 10:48:49;;;;;;;100.93;38.20;;;2.90;99.90;;;;;;5038242;28;20179;-78
2021/12/11 10:51:27;;;;;;;111.13;38.77;;;2.90;99.90;;;;;;5056936;28;20262;-78
2021/12/11 10:53:53;;;;;;;103.30;37.60;;;2.90;99.90;;;;;;5057552;28;20199;-78
2021/12/11 10:56:21;;;;;;;93.47;35.20;;;2.90;99.90;;;;;;5056521;28;20179;-78
2021/12/11 10:58:53;;;;;;;96.20;34.37;;;3.00;99.90;;;;;;5056990;28;20179;-78
2021/12/11 11:01:29;;;;;;;106.30;34.83;;;2.90;99.90;;;;;;5039087;28;20207;-78
2021/12/11 11:04:11;;;;;;;102.37;35.63;;;3.00;99.90;;;;;;5036895;28;20214;-77
2021/12/11 11:06:38;;;;;;;104.57;35.67;;;3.00;99.90;;;;;;5036900;28;20621;-77
2021/12/11 11:09:07;;;;;;;103.07;35.80;;;3.00;99.90;;;;;;5060028;28;20180;-79
2021/12/11 11:11:35;;;;;;;99.37;34.43;;;3.00;99.90;;;;;;5056452;28;20603;-79
2021/12/11 11:14:02;;;;;;;104.90;37.47;;;3.10;99.90;;;;;;5043045;28;20210;-79
2021/12/11 11:16:29;;;;;;;101.27;35.47;;;3.10;99.90;;;;;;5042526;28;20246;-80
2021/12/11 11:18:55;;;;;;;110.00;36.30;;;3.10;99.90;;;;;;5045774;28;20234;-81
2021/12/11 11:21:31;;;;;;;105.10;34.67;;;3.10;99.90;;;;;;5062182;28;20194;-81
2021/12/11 11:23:57;;;;;;;113.13;35.57;;;3.10;99.90;;;;;;5042006;28;20199;-82
2021/12/11 11:26:28;;;;;;;111.00;37.27;;;3.20;99.90;;;;;;5040874;28;20187;-81
2021/12/11 11:28:55;;;;;;;104.13;36.03;;;3.30;99.90;;;;;;5057761;28;20191;-81
2021/12/11 11:31:26;;;;;;;99.93;34.30;;;3.30;99.90;;;;;;5042192;28;20222;-81
2021/12/11 11:33:52;;;;;;;103.23;34.20;;;3.30;99.90;;;;;;5060939;28;20191;-81
2021/12/11 11:36:20;;;;;;;99.33;35.37;;;3.30;99.90;;;;;;5060149;28;20259;-80
2021/12/11 11:38:50;;;;;;;94.57;32.50;;;3.30;99.90;;;;;;5043161;28;20184;-78
2021/12/11 11:41:21;;;;;;;91.07;32.73;;;3.30;99.90;;;;;;5059563;28;20211;-78
2021/12/11 11:43:47;;;;;;;97.13;35.17;;;3.30;99.90;;;;;;5041527;28;20677;-79
2021/12/11 11:46:14;;;;;;;112.60;35.80;;;3.30;99.90;;;;;;5060162;28;20180;-78
2021/12/11 11:48:44;;;;;;;106.17;35.93;;;3.30;99.90;;;;;;5059988;28;20191;-78
2021/12/11 11:51:17;;;;;;;104.77;35.30;;;3.40;99.90;;;;;;5059741;28;20178;-80
2021/12/11 11:53:44;;;;;;;102.80;34.17;;;3.40;99.90;;;;;;5043419;28;20607;-81
2021/12/11 11:56:14;;;;;;;101.67;33.43;;;3.50;99.90;;;;;;5059582;28;20183;-79
2021/12/11 11:58:40;;;;;;;93.27;32.17;;;3.50;99.90;;;;;;5038539;28;20278;-80
2021/12/11 12:01:13;;;;;;;89.33;31.43;;;3.50;99.90;;;;;;5039683;28;20211;-80
2021/12/11 12:03:39;;;;;;;98.07;33.53;;;3.50;99.90;;;;;;5062141;28;20234;-80
2021/12/11 12:06:11;;;;;;;90.43;32.90;;;3.50;99.90;;;;;;5062000;28;20533;-79
2021/12/11 12:08:37;;;;;;;93.33;31.37;;;3.50;99.90;;;;;;5062848;28;20579;-80
2021/12/11 12:11:05;;;;;;;95.03;34.30;;;3.60;99.90;;;;;;5062136;28;20210;-81
2021/12/11 12:13:31;;;;;;;87.07;33.63;;;3.60;99.90;;;;;;5060371;28;20186;-80
2021/12/11 12:16:04;;;;;;;96.27;33.20;;;3.60;99.90;;;;;;5043323;28;20304;-80
2021/12/11 12:18:32;;;;;;;99.43;33.07;;;3.60;99.90;;;;;;5043187;28;20638;-80
2021/12/11 12:21:00;;;;;;;89.90;30.57;;;3.60;99.90;;;;;;5060821;28;20205;-81
2021/12/11 12:23:31;;;;;;;95.80;34.93;;;3.60;99.90;;;;;;5059851;28;20179;-81
2021/12/11 12:26:01;;;;;;;96.33;34.57;;;3.70;99.90;;;;;;5059328;28;20159;-81
2021/12/11 12:28:28;;;;;;;103.70;34.00;;;3.70;99.90;;;;;;5041747;28;20226;-80
2021/12/11 12:31:02;;;;;;;115.43;37.80;;;3.70;99.90;;;;;;5059840;28;20186;-81
2021/12/11 12:33:29;;;;;;;103.00;37.17;;;3.90;99.90;;;;;;5042280;28;20172;-80
2021/12/11 12:35:55;;;;;;;94.90;38.63;;;4.00;99.90;;;;;;5060122;28;20661;-80
2021/12/11 12:38:24;;;;;;;114.40;38.30;;;4.30;99.90;;;;;;5059401;28;20502;-81
2021/12/11 12:41:17;;;;;;;117.37;39.50;;;4.40;99.90;;;;;;5059020;28;20230;-81
2021/12/11 12:46:34;;;;;;;109.27;37.40;;;4.60;99.90;;;;;;5040803;28;20176;-79
2021/12/11 12:49:00;;;;;;;105.60;35.73;;;4.70;99.90;;;;;;5038774;28;20157;-78
2021/12/11 12:51:29;;;;;;;102.50;35.20;;;4.70;99.90;;;;;;5022382;28;20188;-81
2021/12/11 12:53:56;;;;;;;108.63;35.63;;;4.80;99.90;;;;;;5024364;28;20200;-80
2021/12/11 12:56:39;;;;;;;96.37;34.83;;;4.80;99.90;;;;;;5042223;28;20181;-80
2021/12/11 12:59:31;;;;;;;87.33;33.97;;;4.80;99.90;;;;;;5023036;28;20530;-79
2021/12/11 13:02:03;;;;;;;100.77;35.93;;;4.70;99.90;;;;;;5041877;28;20188;-79
2021/12/11 13:04:36;;;;;;;101.80;35.97;;;4.80;99.90;;;;;;5042782;28;20192;-79
2021/12/11 13:07:05;;;;;;;98.03;35.83;;;4.80;99.90;;;;;;5043396;28;20161;-79
2021/12/11 13:09:41;;;;;;;107.47;38.97;;;4.70;99.90;;;;;;5044062;28;20180;-80